sensor_id;sensor_type;location;lat;lon;timestamp;pressure;altitude;pressure_sealevel;temperature;humidity
57610;BME280;43435;46.186;9.024;2023-08-31T13:41:16;98401.00;;;26.83;40.01
57610;BME280;43435;46.186;9.024;2023-08-31T13:43:42;98396.88;;;26.94;38.55
57610;BME280;43435;46.186;9.024;2023-08-31T13:46:07;98399.97;;;27.02;39.16
57610;BME280;43435;46.186;9.024;2023-08-31T13:48:33;98403.69;;;27.06;38.90
57610;BME280;43435;46.186;9.024;2023-08-31T13:50:58;98399.94;;;26.93;40.21
57610;BME280;43435;46.186;9.024;2023-08-31T13:53:23;98400.16;;;27.05;38.79
57610;BME280;43435;46.186;9.024;2023-08-31T13:55:48;98397.50;;;26.91;40.26
57610;BME280;43435;46.186;9.024;2023-08-31T13:58:14;98403.88;;;27.09;38.50
57610;BME280;43435;46.186;9.024;2023-08-31T14:00:39;98399.91;;;27.15;38.92
57610;BME280;43435;46.186;9.024;2023-08-31T14:03:05;98402.66;;;27.15;39.53
57610;BME280;43435;46.186;9.024;2023-08-31T14:05:30;98391.88;;;27.19;38.98
57610;BME280;43435;46.186;9.024;2023-08-31T14:07:56;98391.25;;;27.22;40.66
57610;BME280;43435;46.186;9.024;2023-08-31T14:10:22;98390.69;;;27.42;38.29
57610;BME280;43435;46.186;9.024;2023-08-31T14:12:48;98385.00;;;27.30;39.15
57610;BME280;43435;46.186;9.024;2023-08-31T14:15:13;98393.50;;;27.20;40.40
57610;BME280;43435;46.186;9.024;2023-08-31T14:17:38;98388.16;;;27.55;36.32
57610;BME280;43435;46.186;9.024;2023-08-31T14:20:03;98388.72;;;27.83;33.83
57610;BME280;43435;46.186;9.024;2023-08-31T14:22:32;98384.38;;;27.90;34.10
57610;BME280;43435;46.186;9.024;2023-08-31T14:24:58;98394.78;;;27.71;34.62
57610;BME280;43435;46.186;9.024;2023-08-31T14:27:24;98397.13;;;27.46;38.42
57610;BME280;43435;46.186;9.024;2023-08-31T14:29:49;98401.28;;;27.35;38.78
57610;BME280;43435;46.186;9.024;2023-08-31T14:32:15;98393.13;;;27.53;35.47
57610;BME280;43435;46.186;9.024;2023-08-31T14:34:40;98385.44;;;27.72;35.04
57610;BME280;43435;46.186;9.024;2023-08-31T14:37:06;98394.69;;;27.93;33.00
57610;BME280;43435;46.186;9.024;2023-08-31T14:39:31;98401.00;;;28.20;36.24
57610;BME280;43435;46.186;9.024;2023-08-31T14:41:56;98400.03;;;28.68;34.45
57610;BME280;43435;46.186;9.024;2023-08-31T14:44:25;98398.19;;;29.07;31.74
57610;BME280;43435;46.186;9.024;2023-08-31T14:46:51;98402.13;;;29.35;30.31
57610;BME280;43435;46.186;9.024;2023-08-31T14:49:16;98412.41;;;29.47;32.44
57610;BME280;43435;46.186;9.024;2023-08-31T14:51:42;98406.63;;;29.40;34.53
57610;BME280;43435;46.186;9.024;2023-08-31T14:54:07;98401.41;;;29.18;34.82
57610;BME280;43435;46.186;9.024;2023-08-31T14:56:32;98403.38;;;29.00;36.01
57610;BME280;43435;46.186;9.024;2023-08-31T14:58:57;98405.00;;;28.92;36.13
57610;BME280;43435;46.186;9.024;2023-08-31T15:01:22;98403.94;;;29.31;31.77
57610;BME280;43435;46.186;9.024;2023-08-31T15:03:49;98410.78;;;29.08;34.01
57610;BME280;43435;46.186;9.024;2023-08-31T15:06:15;98408.47;;;29.27;34.76
57610;BME280;43435;46.186;9.024;2023-08-31T15:08:40;98405.59;;;29.15;34.03
57610;BME280;43435;46.186;9.024;2023-08-31T15:11:09;98415.28;;;29.21;35.75
57610;BME280;43435;46.186;9.024;2023-08-31T15:13:34;98413.41;;;29.43;35.78
57610;BME280;43435;46.186;9.024;2023-08-31T15:15:59;98405.06;;;29.69;35.06
57610;BME280;43435;46.186;9.024;2023-08-31T15:18:25;98407.84;;;30.11;33.19
57610;BME280;43435;46.186;9.024;2023-08-31T15:20:51;98415.91;;;30.58;32.63
57610;BME280;43435;46.186;9.024;2023-08-31T15:23:16;98421.81;;;30.68;33.26
57610;BME280;43435;46.186;9.024;2023-08-31T15:25:41;98426.03;;;30.87;32.38
57610;BME280;43435;46.186;9.024;2023-08-31T15:28:06;98421.91;;;31.38;29.27
57610;BME280;43435;46.186;9.024;2023-08-31T15:30:32;98432.50;;;31.48;29.63
57610;BME280;43435;46.186;9.024;2023-08-31T15:33:03;98429.66;;;31.12;33.30
57610;BME280;43435;46.186;9.024;2023-08-31T15:35:29;98431.81;;;31.06;32.69
57610;BME280;43435;46.186;9.024;2023-08-31T15:37:54;98438.63;;;31.21;32.85
57610;BME280;43435;46.186;9.024;2023-08-31T15:40:20;98434.44;;;31.60;30.25
57610;BME280;43435;46.186;9.024;2023-08-31T15:42:45;98436.63;;;31.79;30.65
57610;BME280;43435;46.186;9.024;2023-08-31T15:45:10;98437.97;;;32.22;29.07
57610;BME280;43435;46.186;9.024;2023-08-31T15:47:35;98448.34;;;31.88;31.67
57610;BME280;43435;46.186;9.024;2023-08-31T15:50:00;98443.97;;;31.63;32.56
57610;BME280;43435;46.186;9.024;2023-08-31T15:52:26;98433.31;;;31.86;31.91
57610;BME280;43435;46.186;9.024;2023-08-31T15:54:51;98433.88;;;31.91;31.73
57610;BME280;43435;46.186;9.024;2023-08-31T15:57:17;98428.69;;;31.77;31.93
57610;BME280;43435;46.186;9.024;2023-08-31T15:59:45;98428.69;;;32.02;31.54
57610;BME280;43435;46.186;9.024;2023-08-31T16:02:10;98432.03;;;31.95;30.96
57610;BME280;43435;46.186;9.024;2023-08-31T16:04:36;98426.06;;;32.46;29.19
57610;BME280;43435;46.186;9.024;2023-08-31T16:07:02;98428.72;;;32.42;29.49
57610;BME280;43435;46.186;9.024;2023-08-31T16:09:29;98429.34;;;32.23;29.28
57610;BME280;43435;46.186;9.024;2023-08-31T16:11:55;98432.25;;;32.15;31.07
57610;BME280;43435;46.186;9.024;2023-08-31T16:14:20;98425.50;;;31.63;31.16
57610;BME280;43435;46.186;9.024;2023-08-31T16:16:45;98426.28;;;32.01;29.18
57610;BME280;43435;46.186;9.024;2023-08-31T16:19:10;98424.41;;;32.17;30.09
57610;BME280;43435;46.186;9.024;2023-08-31T16:21:37;98425.91;;;32.14;30.75
57610;BME280;43435;46.186;9.024;2023-08-31T16:24:02;98435.47;;;32.05;30.59
57610;BME280;43435;46.186;9.024;2023-08-31T16:26:27;98433.06;;;31.91;29.28
57610;BME280;43435;46.186;9.024;2023-08-31T16:28:52;98435.81;;;31.79;31.63
57610;BME280;43435;46.186;9.024;2023-08-31T16:31:17;98434.31;;;31.81;30.04
57610;BME280;43435;46.186;9.024;2023-08-31T16:33:43;98429.03;;;31.76;30.34
57610;BME280;43435;46.186;9.024;2023-08-31T16:36:08;98424.22;;;31.85;29.84
57610;BME280;43435;46.186;9.024;2023-08-31T16:38:33;98429.41;;;31.74;29.97
57610;BME280;43435;46.186;9.024;2023-08-31T16:40:58;98422.03;;;31.54;32.47
57610;BME280;43435;46.186;9.024;2023-08-31T16:43:24;98418.13;;;31.67;30.25
57610;BME280;43435;46.186;9.024;2023-08-31T16:45:49;98419.75;;;31.68;30.94
57610;BME280;43435;46.186;9.024;2023-08-31T16:48:14;98412.75;;;31.71;30.02
57610;BME280;43435;46.186;9.024;2023-08-31T16:50:39;98425.72;;;31.46;33.22
57610;BME280;43435;46.186;9.024;2023-08-31T16:53:05;98412.56;;;31.18;34.48
57610;BME280;43435;46.186;9.024;2023-08-31T16:55:30;98416.19;;;30.98;34.96
57610;BME280;43435;46.186;9.024;2023-08-31T16:57:56;98418.94;;;30.98;33.43
57610;BME280;43435;46.186;9.024;2023-08-31T17:00:21;98421.22;;;30.96;31.79
57610;BME280;43435;46.186;9.024;2023-08-31T17:02:47;98416.19;;;30.98;31.32
57610;BME280;43435;46.186;9.024;2023-08-31T17:05:13;98415.94;;;30.91;32.10
57610;BME280;43435;46.186;9.024;2023-08-31T17:07:39;98414.53;;;30.85;31.75
57610;BME280;43435;46.186;9.024;2023-08-31T17:10:04;98425.09;;;30.83;32.51
57610;BME280;43435;46.186;9.024;2023-08-31T17:12:30;98418.13;;;30.64;31.04
57610;BME280;43435;46.186;9.024;2023-08-31T17:14:57;98426.28;;;30.40;33.54
57610;BME280;43435;46.186;9.024;2023-08-31T17:17:22;98429.97;;;29.93;34.95
57610;BME280;43435;46.186;9.024;2023-08-31T17:19:50;98432.50;;;29.77;34.37
57610;BME280;43435;46.186;9.024;2023-08-31T17:22:15;98430.34;;;29.45;36.55
57610;BME280;43435;46.186;9.024;2023-08-31T17:24:41;98439.34;;;29.16;37.81
57610;BME280;43435;46.186;9.024;2023-08-31T17:27:06;98436.66;;;28.98;37.09
57610;BME280;43435;46.186;9.024;2023-08-31T17:29:31;98445.53;;;28.78;36.29
57610;BME280;43435;46.186;9.024;2023-08-31T17:31:56;98446.84;;;28.63;36.39
57610;BME280;43435;46.186;9.024;2023-08-31T17:34:21;98447.00;;;28.40;37.73
57610;BME280;43435;46.186;9.024;2023-08-31T17:36:47;98451.47;;;28.19;39.82
57610;BME280;43435;46.186;9.024;2023-08-31T17:39:12;98461.44;;;27.98;40.17
57610;BME280;43435;46.186;9.024;2023-08-31T17:41:37;98457.84;;;27.80;40.80
57610;BME280;43435;46.186;9.024;2023-08-31T17:44:03;98465.19;;;27.62;39.89
57610;BME280;43435;46.186;9.024;2023-08-31T17:46:28;98461.22;;;27.37;41.56
57610;BME280;43435;46.186;9.024;2023-08-31T17:48:55;98469.47;;;27.14;40.05
57610;BME280;43435;46.186;9.024;2023-08-31T17:51:20;98466.06;;;26.95;43.05
57610;BME280;43435;46.186;9.024;2023-08-31T17:53:45;98475.59;;;26.75;42.75
57610;BME280;43435;46.186;9.024;2023-08-31T17:56:11;98478.56;;;26.65;41.84
57610;BME280;43435;46.186;9.024;2023-08-31T17:58:36;98486.41;;;26.58;43.56
57610;BME280;43435;46.186;9.024;2023-08-31T18:01:01;98485.81;;;26.47;41.98
57610;BME280;43435;46.186;9.024;2023-08-31T18:03:27;98483.59;;;26.35;42.39
57610;BME280;43435;46.186;9.024;2023-08-31T18:05:52;98497.75;;;25.87;45.08
57610;BME280;43435;46.186;9.024;2023-08-31T18:08:19;98497.78;;;25.08;43.91
57610;BME280;43435;46.186;9.024;2023-08-31T18:10:46;98502.81;;;25.01;42.50
57610;BME280;43435;46.186;9.024;2023-08-31T18:13:12;98508.38;;;24.58;44.05
57610;BME280;43435;46.186;9.024;2023-08-31T18:15:37;98519.72;;;24.03;47.32
57610;BME280;43435;46.186;9.024;2023-08-31T18:18:02;98514.84;;;24.00;46.37
57610;BME280;43435;46.186;9.024;2023-08-31T18:20:27;98516.56;;;24.15;46.35
57610;BME280;43435;46.186;9.024;2023-08-31T18:22:53;98525.97;;;24.04;46.16
57610;BME280;43435;46.186;9.024;2023-08-31T18:25:18;98535.88;;;23.95;46.80
57610;BME280;43435;46.186;9.024;2023-08-31T18:27:43;98543.50;;;23.98;46.58
57610;BME280;43435;46.186;9.024;2023-08-31T18:30:08;98546.63;;;23.86;47.01
57610;BME280;43435;46.186;9.024;2023-08-31T18:32:34;98550.91;;;23.68;46.43
57610;BME280;43435;46.186;9.024;2023-08-31T18:35:01;98554.78;;;23.57;47.15
57610;BME280;43435;46.186;9.024;2023-08-31T18:37:27;98560.66;;;23.40;48.16
57610;BME280;43435;46.186;9.024;2023-08-31T18:39:52;98564.97;;;23.41;47.90
57610;BME280;43435;46.186;9.024;2023-08-31T18:42:17;98567.22;;;23.34;48.73
57610;BME280;43435;46.186;9.024;2023-08-31T18:44:42;98583.97;;;23.17;49.54
57610;BME280;43435;46.186;9.024;2023-08-31T18:47:07;98588.19;;;22.99;49.96
57610;BME280;43435;46.186;9.024;2023-08-31T18:49:33;98589.00;;;22.89;49.83
57610;BME280;43435;46.186;9.024;2023-08-31T18:51:58;98595.59;;;22.83;49.94
57610;BME280;43435;46.186;9.024;2023-08-31T18:54:23;98593.72;;;22.79;50.09
57610;BME280;43435;46.186;9.024;2023-08-31T18:56:48;98599.22;;;22.63;50.83
57610;BME280;43435;46.186;9.024;2023-08-31T18:59:14;98608.44;;;22.67;50.69
57610;BME280;43435;46.186;9.024;2023-08-31T19:01:39;98611.50;;;22.56;51.05
57610;BME280;43435;46.186;9.024;2023-08-31T19:04:04;98613.19;;;22.47;51.29
57610;BME280;43435;46.186;9.024;2023-08-31T19:06:29;98623.75;;;22.48;51.54
57610;BME280;43435;46.186;9.024;2023-08-31T19:08:57;98621.38;;;22.31;51.58
57610;BME280;43435;46.186;9.024;2023-08-31T19:11:23;98631.72;;;22.29;51.85
57610;BME280;43435;46.186;9.024;2023-08-31T19:13:48;98640.97;;;22.23;52.37
57610;BME280;43435;46.186;9.024;2023-08-31T19:16:14;98647.78;;;22.21;52.91
57610;BME280;43435;46.186;9.024;2023-08-31T19:18:40;98642.88;;;22.23;53.16
57610;BME280;43435;46.186;9.024;2023-08-31T19:21:05;98654.81;;;22.16;53.58
57610;BME280;43435;46.186;9.024;2023-08-31T19:23:30;98652.41;;;22.00;54.14
57610;BME280;43435;46.186;9.024;2023-08-31T19:26:05;98656.75;;;21.95;53.03
57610;BME280;43435;46.186;9.024;2023-08-31T19:28:33;98662.47;;;21.89;54.27
57610;BME280;43435;46.186;9.024;2023-08-31T19:30:58;98660.88;;;21.73;54.81
57610;BME280;43435;46.186;9.024;2023-08-31T19:33:23;98661.94;;;21.71;55.49
57610;BME280;43435;46.186;9.024;2023-08-31T19:35:49;98671.44;;;21.69;55.67
57610;BME280;43435;46.186;9.024;2023-08-31T19:38:15;98680.94;;;21.66;55.66
57610;BME280;43435;46.186;9.024;2023-08-31T19:40:41;98673.06;;;21.55;56.41
57610;BME280;43435;46.186;9.024;2023-08-31T19:43:07;98683.91;;;21.44;57.05
57610;BME280;43435;46.186;9.024;2023-08-31T19:45:32;98678.78;;;21.48;56.45
57610;BME280;43435;46.186;9.024;2023-08-31T19:47:57;98687.72;;;21.43;56.65
57610;BME280;43435;46.186;9.024;2023-08-31T19:50:22;98683.56;;;21.15;57.56
57610;BME280;43435;46.186;9.024;2023-08-31T19:52:50;98686.31;;;21.26;57.38
57610;BME280;43435;46.186;9.024;2023-08-31T19:55:15;98686.00;;;21.17;57.51
57610;BME280;43435;46.186;9.024;2023-08-31T19:57:40;98680.84;;;21.05;57.82
57610;BME280;43435;46.186;9.024;2023-08-31T20:00:06;98686.78;;;21.02;57.61
57610;BME280;43435;46.186;9.024;2023-08-31T20:02:32;98688.41;;;20.98;58.41
57610;BME280;43435;46.186;9.024;2023-08-31T20:04:57;98701.72;;;21.05;57.88
57610;BME280;43435;46.186;9.024;2023-08-31T20:07:23;98694.91;;;21.02;57.72
57610;BME280;43435;46.186;9.024;2023-08-31T20:09:48;98696.53;;;20.98;57.89
57610;BME280;43435;46.186;9.024;2023-08-31T20:12:14;98699.78;;;20.90;58.38
57610;BME280;43435;46.186;9.024;2023-08-31T20:14:39;98703.25;;;20.75;59.07
57610;BME280;43435;46.186;9.024;2023-08-31T20:17:04;98693.50;;;20.79;59.42
57610;BME280;43435;46.186;9.024;2023-08-31T20:19:30;98703.00;;;20.82;59.09
57610;BME280;43435;46.186;9.024;2023-08-31T20:21:55;98703.25;;;20.75;59.30
57610;BME280;43435;46.186;9.024;2023-08-31T20:24:20;98706.69;;;20.60;59.74
57610;BME280;43435;46.186;9.024;2023-08-31T20:26:45;98704.56;;;20.62;59.76
